Terminal Aerodrome Forecast
Issued by NWS

Home | Current Version | Previous Version | Text Only | Print | Product List | Glossary Off
Versions: 1 2 3 4 5 6 7 8 9 10 11 12 13 14 15 16 17 18 19 20 21 22 23

000
FTUS43 KBIS 270500
TAFMOT
TAF
KMOT 270523Z 2706/2806 31011KT P6SM SCT015 SCT025
     FM270800 31010KT P6SM BKN025
     FM271700 33011KT P6SM SCT035 BKN050
     FM272100 34009KT P6SM SCT040
     FM280200 VRB03KT P6SM SCT040=

USA.gov is the U.S. government's official web portal to all federal, state and local government web resources and services.